Terminal Aerodrome Forecast
Issued by NWS

Home | Current Version | Previous Version | Text Only | Print | Product List | Glossary On
Versions: 1 2 3 4 5 6 7 8 9 10 11 12 13 14
000
FTUS43 KPAH 282300
TAFCGI
TAF
KCGI 282330Z 2900/2924 35009KT P6SM SCT080
     FM290100 35003KT P6SM SKC
      TEMPO 2909/2912 4SM BR
     FM291500 35005KT P6SM SCT070=

USA.gov is the U.S. government's official web portal to all federal, state and local government web resources and services.